createdAt,value
2017-09-30T00:00:30.005Z,7.97
2017-09-30T00:02:58.464Z,7.93
2017-09-30T00:05:27.644Z,7.07
2017-09-30T00:07:55.830Z,9.57
2017-09-30T00:10:24.926Z,7.67
2017-09-30T00:12:54.005Z,6.80
2017-09-30T00:15:22.167Z,6.80
2017-09-30T00:17:50.547Z,7.80
2017-09-30T00:20:18.848Z,7.80
2017-09-30T00:22:48.047Z,6.90
2017-09-30T00:25:17.227Z,6.90
2017-09-30T00:27:45.507Z,6.10
2017-09-30T00:30:13.867Z,6.77
2017-09-30T00:32:42.447Z,6.87
2017-09-30T00:35:10.848Z,7.93
2017-09-30T00:37:40.007Z,6.97
2017-09-30T00:40:08.427Z,7.00
2017-09-30T00:42:37.727Z,8.10
2017-09-30T00:45:07.135Z,6.80
2017-09-30T00:47:36.629Z,7.07
2017-09-30T00:50:06.074Z,7.33
2017-09-30T00:52:34.634Z,6.63
2017-09-30T00:55:03.682Z,7.10
2017-09-30T00:57:32.189Z,6.90
2017-09-30T01:00:01.509Z,7.13
2017-09-30T01:02:30.989Z,7.50
2017-09-30T01:04:59.359Z,7.00
2017-09-30T01:07:27.546Z,7.97
2017-09-30T01:09:55.686Z,7.53
2017-09-30T01:12:24.096Z,6.33
2017-09-30T01:14:53.282Z,6.30
2017-09-30T01:17:21.849Z,6.63
2017-09-30T01:19:50.329Z,8.17
2017-09-30T01:22:18.849Z,6.53
2017-09-30T01:24:48.308Z,7.13
2017-09-30T01:27:16.729Z,6.40
2017-09-30T01:29:46.108Z,6.63
2017-09-30T01:32:14.585Z,5.90
2017-09-30T01:34:43.149Z,5.97
2017-09-30T01:37:11.649Z,6.10
2017-09-30T01:39:41.568Z,7.37
2017-09-30T01:42:10.331Z,6.57
2017-09-30T01:44:38.829Z,6.70
2017-09-30T01:47:07.329Z,6.03
2017-09-30T01:49:36.509Z,6.00
2017-09-30T01:52:05.089Z,6.60
2017-09-30T01:54:34.329Z,6.67
2017-09-30T01:57:02.669Z,6.80
2017-09-30T01:59:31.071Z,6.43
2017-09-30T02:02:00.269Z,6.97
2017-09-30T02:04:29.469Z,7.20
2017-09-30T02:06:58.549Z,8.30
2017-09-30T02:09:27.949Z,5.90
2017-09-30T02:11:57.029Z,6.40
2017-09-30T02:14:25.329Z,7.83
2017-09-30T02:16:54.309Z,6.53
2017-09-30T02:19:22.779Z,5.93
2017-09-30T02:21:51.052Z,6.53
2017-09-30T02:24:19.313Z,6.37
2017-09-30T02:26:47.729Z,6.20
2017-09-30T02:29:16.889Z,5.57
2017-09-30T02:31:45.192Z,5.93
2017-09-30T02:34:13.368Z,5.70
2017-09-30T02:36:42.647Z,5.83
2017-09-30T02:39:11.129Z,6.50
2017-09-30T02:41:39.493Z,6.10
2017-09-30T02:44:08.210Z,5.30
2017-09-30T02:46:36.606Z,6.63
2017-09-30T02:49:05.594Z,8.37
2017-09-30T02:51:34.539Z,6.10
2017-09-30T02:54:02.862Z,6.80
2017-09-30T02:56:31.935Z,5.97
2017-09-30T02:59:00.207Z,5.80
2017-09-30T03:01:28.670Z,6.10
2017-09-30T03:03:57.287Z,5.80
2017-09-30T03:06:26.581Z,5.37
2017-09-30T03:08:55.079Z,8.30
2017-09-30T03:11:24.158Z,6.90
2017-09-30T03:13:53.145Z,6.77
2017-09-30T03:16:21.435Z,6.70
2017-09-30T03:18:50.916Z,5.53
2017-09-30T03:21:19.196Z,5.73
2017-09-30T03:23:47.516Z,5.10
2017-09-30T03:26:15.776Z,5.33
2017-09-30T03:28:45.293Z,5.63
2017-09-30T03:31:13.543Z,5.70
2017-09-30T03:33:42.869Z,5.97
2017-09-30T03:36:11.318Z,6.17
2017-09-30T03:38:39.838Z,6.93
2017-09-30T03:41:08.438Z,6.50
2017-09-30T03:43:36.755Z,5.80
2017-09-30T03:46:05.135Z,5.53
2017-09-30T03:48:33.698Z,6.40
2017-09-30T03:51:02.057Z,6.07
2017-09-30T03:53:30.322Z,5.40
2017-09-30T03:55:58.546Z,5.00
2017-09-30T03:58:27.178Z,5.37
2017-09-30T04:00:55.804Z,5.63
2017-09-30T04:03:23.967Z,6.47
2017-09-30T04:05:52.170Z,6.70
2017-09-30T04:08:21.357Z,10.27
2017-09-30T04:10:50.548Z,5.83
2017-09-30T04:13:19.227Z,5.40
2017-09-30T04:15:47.392Z,5.60
2017-09-30T04:18:15.742Z,5.67
2017-09-30T04:20:43.959Z,5.87
2017-09-30T04:23:12.254Z,4.93
2017-09-30T04:25:41.339Z,4.70
2017-09-30T04:28:10.520Z,9.97
2017-09-30T04:30:39.203Z,5.27
2017-09-30T04:33:07.783Z,5.70
2017-09-30T04:35:36.791Z,6.63
2017-09-30T04:38:05.063Z,5.20
2017-09-30T04:40:33.322Z,5.07
2017-09-30T04:43:01.497Z,5.80
2017-09-30T04:45:29.943Z,7.77
2017-09-30T04:47:58.224Z,5.37
2017-09-30T04:50:26.423Z,5.50
2017-09-30T04:52:54.837Z,5.63
2017-09-30T04:55:23.903Z,6.13
2017-09-30T04:57:52.183Z,6.30
2017-09-30T05:00:20.562Z,11.37
2017-09-30T05:02:48.928Z,5.70
2017-09-30T05:05:17.314Z,6.33
2017-09-30T05:07:45.914Z,5.47
2017-09-30T05:10:14.994Z,5.17
2017-09-30T05:12:43.354Z,5.53
2017-09-30T05:15:11.846Z,5.40
2017-09-30T05:17:40.139Z,4.80
2017-09-30T05:20:08.942Z,5.70
2017-09-30T05:22:38.318Z,5.30
2017-09-30T05:25:06.478Z,5.90
2017-09-30T05:27:34.913Z,5.30
2017-09-30T05:30:03.073Z,5.47
2017-09-30T05:32:32.253Z,5.90
2017-09-30T05:35:01.427Z,5.67
2017-09-30T05:37:29.810Z,5.73
2017-09-30T05:39:58.093Z,5.73
2017-09-30T05:42:26.435Z,5.70
2017-09-30T05:44:54.856Z,6.40
2017-09-30T05:47:23.151Z,5.80
2017-09-30T05:49:52.080Z,6.47
2017-09-30T05:52:20.287Z,5.80
2017-09-30T05:54:48.756Z,5.50
2017-09-30T05:57:17.167Z,6.40
2017-09-30T05:59:46.450Z,5.17
2017-09-30T06:02:15.649Z,7.40
2017-09-30T06:04:43.909Z,7.17
2017-09-30T06:07:12.328Z,7.17
2017-09-30T06:09:40.669Z,5.53
2017-09-30T06:12:09.269Z,4.93
2017-09-30T06:14:38.235Z,4.87
2017-09-30T06:17:06.249Z,5.60
2017-09-30T06:19:34.480Z,6.73
2017-09-30T06:22:02.668Z,5.50
2017-09-30T06:24:31.011Z,5.53
2017-09-30T06:26:59.099Z,5.70
2017-09-30T06:29:27.395Z,6.73
2017-09-30T06:31:56.275Z,6.57
2017-09-30T06:34:24.546Z,6.17
2017-09-30T06:36:52.924Z,8.03
2017-09-30T06:39:21.241Z,16.13
2017-09-30T06:41:49.376Z,8.53
2017-09-30T06:44:17.802Z,5.10
2017-09-30T06:46:45.940Z,7.27
2017-09-30T06:49:14.320Z,6.00
2017-09-30T06:51:42.705Z,6.37
2017-09-30T06:54:11.838Z,6.00
2017-09-30T06:56:40.042Z,7.73
2017-09-30T06:59:08.433Z,6.30
2017-09-30T07:01:37.001Z,6.10
2017-09-30T07:04:05.618Z,4.60
2017-09-30T07:06:34.607Z,8.53
2017-09-30T07:09:04.228Z,6.53
2017-09-30T07:11:32.792Z,6.80
2017-09-30T07:14:01.715Z,6.10
2017-09-30T07:16:30.052Z,7.50
2017-09-30T07:18:58.354Z,6.00
2017-09-30T07:21:27.396Z,6.17
2017-09-30T07:23:55.915Z,5.30
2017-09-30T07:26:24.266Z,5.10
2017-09-30T07:28:52.571Z,6.10
2017-09-30T07:31:21.771Z,8.03
2017-09-30T07:33:50.955Z,6.50
2017-09-30T07:36:19.221Z,6.07
2017-09-30T07:38:48.978Z,4.77
2017-09-30T07:41:17.408Z,6.93
2017-09-30T07:43:45.605Z,4.67
2017-09-30T07:46:14.774Z,5.93
2017-09-30T07:48:42.954Z,6.27
2017-09-30T07:51:11.334Z,6.47
2017-09-30T07:53:39.813Z,5.97
2017-09-30T07:56:08.212Z,8.27
2017-09-30T07:58:37.238Z,9.23
2017-09-30T08:01:05.651Z,9.90
2017-09-30T08:03:34.203Z,5.53
2017-09-30T08:06:02.529Z,8.67
2017-09-30T08:08:30.587Z,6.63
2017-09-30T08:10:58.772Z,5.90
2017-09-30T08:13:27.047Z,4.60
2017-09-30T08:15:55.173Z,4.80
2017-09-30T08:18:23.495Z,4.70
2017-09-30T08:20:51.779Z,5.23
2017-09-30T08:23:20.960Z,6.50
2017-09-30T08:25:49.344Z,4.37
2017-09-30T08:28:19.058Z,6.00
2017-09-30T08:30:48.144Z,5.63
2017-09-30T08:33:16.368Z,10.03
2017-09-30T08:35:44.909Z,4.80
2017-09-30T08:38:13.488Z,6.00
2017-09-30T08:40:41.553Z,8.50
2017-09-30T08:43:10.028Z,6.77
2017-09-30T08:45:38.311Z,6.10
2017-09-30T08:48:06.712Z,5.17
2017-09-30T08:50:35.793Z,6.47
2017-09-30T08:53:03.858Z,5.47
2017-09-30T08:55:32.338Z,5.60
2017-09-30T08:58:00.705Z,5.13
2017-09-30T09:00:28.901Z,5.90
2017-09-30T09:02:57.977Z,6.53
2017-09-30T09:05:26.488Z,7.03
2017-09-30T09:07:55.662Z,8.30
2017-09-30T09:10:24.707Z,11.50
2017-09-30T09:12:53.039Z,14.47
2017-09-30T09:15:22.123Z,15.10
2017-09-30T09:17:50.513Z,17.97
2017-09-30T09:20:19.534Z,17.80
2017-09-30T09:22:47.971Z,18.60
2017-09-30T09:25:17.172Z,19.20
2017-09-30T09:27:45.573Z,17.60
2017-09-30T09:30:14.746Z,19.00
2017-09-30T09:32:42.917Z,17.77
2017-09-30T09:35:10.967Z,20.80
2017-09-30T09:37:39.452Z,18.80
2017-09-30T09:40:07.967Z,18.70
2017-09-30T09:42:37.327Z,16.60
2017-09-30T09:45:05.749Z,14.37
2017-09-30T09:47:35.035Z,15.37
2017-09-30T09:50:03.328Z,19.47
2017-09-30T09:52:32.701Z,18.50
2017-09-30T09:55:01.012Z,18.47
2017-09-30T09:57:29.357Z,18.60
2017-09-30T09:59:58.514Z,18.23
2017-09-30T10:02:26.837Z,18.90
2017-09-30T10:04:56.541Z,23.43
2017-09-30T10:07:24.904Z,22.13
2017-09-30T10:09:53.419Z,21.97
2017-09-30T10:12:22.550Z,23.43
2017-09-30T10:14:51.068Z,15.80
2017-09-30T10:17:19.462Z,20.43
2017-09-30T10:19:48.471Z,20.43
2017-09-30T10:22:17.648Z,21.23
2017-09-30T10:24:47.453Z,28.23
2017-09-30T10:27:15.730Z,20.70
2017-09-30T10:29:44.227Z,20.57
2017-09-30T10:32:12.708Z,18.63
2017-09-30T10:34:42.105Z,18.90
2017-09-30T10:37:10.275Z,18.57
2017-09-30T10:39:40.337Z,19.37
2017-09-30T10:42:08.656Z,19.47
2017-09-30T10:44:37.047Z,18.67
2017-09-30T10:47:05.507Z,19.10
2017-09-30T10:49:33.713Z,19.27
2017-09-30T10:52:02.855Z,18.90
2017-09-30T10:54:31.578Z,16.60
2017-09-30T10:57:01.761Z,17.10
2017-09-30T10:59:30.178Z,17.73
2017-09-30T11:01:59.097Z,18.50
2017-09-30T11:04:28.172Z,17.13
2017-09-30T11:06:56.633Z,16.83
2017-09-30T11:09:24.932Z,17.77
2017-09-30T11:11:54.866Z,16.70
2017-09-30T11:14:24.398Z,15.73
2017-09-30T11:16:53.019Z,17.70
2017-09-30T11:19:22.194Z,15.07
2017-09-30T11:21:50.476Z,15.10
2017-09-30T11:24:18.862Z,14.07
2017-09-30T11:26:48.784Z,12.50
2017-09-30T11:29:17.043Z,13.87
2017-09-30T11:31:45.238Z,11.60
2017-09-30T11:34:14.192Z,9.87
2017-09-30T11:36:42.610Z,10.50
2017-09-30T11:39:11.988Z,10.10
2017-09-30T11:41:40.061Z,11.30
2017-09-30T11:44:08.450Z,9.07
2017-09-30T11:46:36.629Z,10.90
2017-09-30T11:49:05.017Z,10.90
2017-09-30T11:51:34.098Z,11.67
2017-09-30T11:54:04.015Z,9.97
2017-09-30T11:56:34.113Z,11.40
2017-09-30T11:59:02.480Z,9.90
2017-09-30T12:01:30.792Z,9.97
2017-09-30T12:03:59.976Z,10.70
2017-09-30T12:06:28.255Z,9.67
2017-09-30T12:08:56.428Z,9.60
2017-09-30T12:11:25.534Z,9.47
2017-09-30T12:13:54.853Z,9.57
2017-09-30T12:16:24.291Z,9.43
2017-09-30T12:18:52.616Z,10.30
2017-09-30T12:21:21.607Z,11.53
2017-09-30T12:23:49.952Z,10.00
2017-09-30T12:26:18.446Z,8.93
2017-09-30T12:28:46.805Z,10.83
2017-09-30T12:31:15.107Z,9.90
2017-09-30T12:33:43.997Z,12.37
2017-09-30T12:36:13.027Z,11.43
2017-09-30T12:38:42.515Z,11.23
2017-09-30T12:41:11.803Z,13.47
2017-09-30T12:43:39.977Z,12.17
2017-09-30T12:46:08.157Z,12.67
2017-09-30T12:48:37.225Z,11.77
2017-09-30T12:51:05.720Z,11.90
2017-09-30T12:53:34.249Z,11.33
2017-09-30T12:56:02.414Z,13.30
2017-09-30T12:58:30.895Z,13.70
2017-09-30T13:00:59.152Z,12.40
2017-09-30T13:03:28.241Z,14.63
2017-09-30T13:05:57.760Z,13.50
2017-09-30T13:08:27.033Z,11.40
2017-09-30T13:10:55.418Z,13.80
2017-09-30T13:13:24.596Z,14.00
2017-09-30T13:15:53.810Z,13.30
2017-09-30T13:18:22.665Z,13.70
2017-09-30T13:20:51.472Z,13.03
2017-09-30T13:23:19.951Z,12.90
2017-09-30T13:25:49.014Z,13.03
2017-09-30T13:28:17.235Z,11.83
2017-09-30T13:30:45.589Z,13.00
2017-09-30T13:33:13.774Z,13.40
2017-09-30T13:35:42.253Z,12.60
2017-09-30T13:38:10.765Z,14.03
2017-09-30T13:40:39.835Z,12.37
2017-09-30T13:43:09.135Z,12.27
2017-09-30T13:45:37.625Z,14.00
2017-09-30T13:48:06.604Z,13.67
2017-09-30T13:50:35.097Z,15.87
2017-09-30T13:53:04.291Z,14.07
2017-09-30T13:55:32.553Z,17.00
2017-09-30T13:58:00.836Z,16.13
2017-09-30T14:00:29.220Z,16.80
2017-09-30T14:02:57.697Z,15.87
2017-09-30T14:05:26.798Z,17.90
2017-09-30T14:07:55.878Z,16.40
2017-09-30T14:10:25.106Z,17.93
2017-09-30T14:12:54.204Z,16.30
2017-09-30T14:15:23.384Z,17.57
2017-09-30T14:17:52.542Z,16.83
2017-09-30T14:20:20.810Z,17.47
2017-09-30T14:22:49.530Z,15.77
2017-09-30T14:25:17.809Z,17.63
2017-09-30T14:27:46.170Z,18.43
2017-09-30T14:30:14.687Z,16.50
2017-09-30T14:32:43.666Z,24.87
2017-09-30T14:35:12.016Z,19.27
2017-09-30T14:37:40.531Z,20.07
2017-09-30T14:40:09.852Z,18.33
2017-09-30T14:42:38.070Z,18.10
2017-09-30T14:45:06.166Z,15.83
2017-09-30T14:47:34.328Z,16.70
2017-09-30T14:50:03.133Z,17.10
2017-09-30T14:52:32.133Z,15.47
2017-09-30T14:55:01.369Z,15.97
2017-09-30T14:57:29.862Z,15.77
2017-09-30T14:59:58.180Z,16.60
2017-09-30T15:02:27.363Z,15.57
2017-09-30T15:04:55.748Z,17.77
2017-09-30T15:07:24.317Z,16.30
2017-09-30T15:09:52.708Z,18.20
2017-09-30T15:12:21.189Z,19.80
2017-09-30T15:14:49.434Z,18.57
2017-09-30T15:17:17.843Z,20.77
2017-09-30T15:19:46.209Z,20.20
2017-09-30T15:22:15.289Z,20.80
2017-09-30T15:24:43.690Z,20.20
2017-09-30T15:27:12.112Z,23.37
2017-09-30T15:29:40.426Z,21.20
2017-09-30T15:32:08.722Z,21.83
2017-09-30T15:34:37.231Z,19.70
2017-09-30T15:37:06.391Z,19.37
2017-09-30T15:39:34.763Z,22.33
2017-09-30T15:42:02.898Z,18.40
2017-09-30T15:44:31.432Z,19.20
2017-09-30T15:47:00.614Z,20.97
2017-09-30T15:49:29.075Z,21.50
2017-09-30T15:51:57.376Z,22.67
2017-09-30T15:54:26.685Z,21.47
2017-09-30T15:56:55.376Z,16.17
2017-09-30T15:59:23.883Z,15.50
2017-09-30T16:01:52.356Z,15.83
2017-09-30T16:04:21.610Z,15.37
2017-09-30T16:06:50.328Z,16.00
2017-09-30T16:09:19.702Z,15.03
2017-09-30T16:11:48.868Z,13.30
2017-09-30T16:14:17.205Z,13.50
2017-09-30T16:16:46.368Z,12.67
2017-09-30T16:19:15.567Z,13.67
2017-09-30T16:21:43.947Z,14.60
2017-09-30T16:24:12.332Z,18.27
2017-09-30T16:26:41.538Z,21.53
2017-09-30T16:29:10.621Z,19.73
2017-09-30T16:31:40.643Z,20.73
2017-09-30T16:34:09.013Z,28.97
2017-09-30T16:36:38.014Z,23.40
2017-09-30T16:39:06.279Z,18.77
2017-09-30T16:41:34.623Z,20.33
2017-09-30T16:44:03.019Z,22.43
2017-09-30T16:46:31.611Z,22.33
2017-09-30T16:48:59.800Z,21.20
2017-09-30T16:51:29.569Z,18.10
2017-09-30T16:53:57.868Z,18.47
2017-09-30T16:56:26.332Z,17.80
2017-09-30T16:58:54.646Z,19.70
2017-09-30T17:01:22.808Z,15.90
2017-09-30T17:03:51.100Z,17.57
2017-09-30T17:06:19.359Z,16.97
2017-09-30T17:08:47.855Z,15.47
2017-09-30T17:11:16.542Z,14.40
2017-09-30T17:13:44.682Z,18.30
2017-09-30T17:16:13.207Z,13.70
2017-09-30T17:18:42.381Z,13.77
2017-09-30T17:21:12.265Z,15.73
2017-09-30T17:23:40.549Z,12.23
2017-09-30T17:26:08.946Z,13.93
2017-09-30T17:28:37.221Z,12.77
2017-09-30T17:31:05.507Z,13.23
2017-09-30T17:33:33.918Z,12.60
2017-09-30T17:36:02.200Z,11.37
2017-09-30T17:38:30.507Z,13.40
2017-09-30T17:40:58.907Z,13.23
2017-09-30T17:43:27.473Z,13.23
2017-09-30T17:45:56.273Z,13.47
2017-09-30T17:48:24.765Z,12.97
2017-09-30T17:50:54.026Z,15.80
2017-09-30T17:53:22.347Z,13.07
2017-09-30T17:55:52.162Z,11.70
2017-09-30T17:58:20.763Z,12.17
2017-09-30T18:00:49.728Z,12.80
2017-09-30T18:03:19.013Z,11.43
2017-09-30T18:05:47.488Z,14.23
2017-09-30T18:08:15.976Z,14.90
2017-09-30T18:10:44.428Z,14.37
2017-09-30T18:13:13.152Z,15.00
2017-09-30T18:15:41.518Z,12.90
2017-09-30T18:18:09.721Z,13.70
2017-09-30T18:20:38.032Z,14.40
2017-09-30T18:23:06.544Z,14.80
2017-09-30T18:25:35.116Z,14.13
2017-09-30T18:28:03.517Z,16.47
2017-09-30T18:30:32.019Z,14.90
2017-09-30T18:33:01.193Z,14.30
2017-09-30T18:35:29.574Z,15.40
2017-09-30T18:37:57.951Z,18.80
2017-09-30T18:40:26.531Z,12.97
2017-09-30T18:42:55.135Z,10.73
2017-09-30T18:45:24.429Z,12.60
2017-09-30T18:47:53.531Z,12.10
2017-09-30T18:50:23.019Z,13.23
2017-09-30T18:52:51.359Z,13.57
2017-09-30T18:55:19.986Z,12.73
2017-09-30T18:57:49.065Z,12.70
2017-09-30T19:00:17.457Z,12.50
2017-09-30T19:02:46.559Z,14.73
2017-09-30T19:05:14.814Z,14.33
2017-09-30T19:07:43.994Z,12.80
2017-09-30T19:10:12.714Z,10.70
2017-09-30T19:12:41.714Z,12.70
2017-09-30T19:15:10.919Z,14.40
2017-09-30T19:17:40.019Z,12.80
2017-09-30T19:20:08.396Z,11.30
2017-09-30T19:22:36.648Z,9.87
2017-09-30T19:25:05.630Z,12.27
2017-09-30T19:27:34.840Z,12.87
2017-09-30T19:30:02.983Z,12.27
2017-09-30T19:32:31.692Z,12.33
2017-09-30T19:35:00.878Z,12.30
2017-09-30T19:37:29.254Z,12.50
2017-09-30T19:39:57.844Z,14.50
2017-09-30T19:42:26.167Z,10.63
2017-09-30T19:44:54.795Z,9.50
2017-09-30T19:47:22.967Z,9.43
2017-09-30T19:49:52.178Z,9.93
2017-09-30T19:52:20.325Z,7.30
2017-09-30T19:54:48.638Z,5.80
2017-09-30T19:57:17.115Z,4.80
2017-09-30T19:59:46.269Z,6.67
2017-09-30T20:02:14.852Z,4.60
2017-09-30T20:04:43.160Z,4.50
2017-09-30T20:07:12.678Z,6.63
2017-09-30T20:09:41.090Z,3.60
2017-09-30T20:12:09.338Z,3.57
2017-09-30T20:14:38.621Z,3.83
2017-09-30T20:17:07.820Z,7.33
2017-09-30T20:19:37.815Z,4.13
2017-09-30T20:22:05.896Z,4.10
2017-09-30T20:24:34.453Z,4.63
2017-09-30T20:27:02.503Z,10.73
2017-09-30T20:29:30.719Z,5.73
2017-09-30T20:31:59.209Z,4.90
2017-09-30T20:34:27.732Z,5.30
2017-09-30T20:36:56.163Z,4.00
2017-09-30T20:39:24.533Z,5.93
2017-09-30T20:41:52.779Z,4.50
2017-09-30T20:44:21.213Z,3.83
2017-09-30T20:46:49.365Z,3.97
2017-09-30T20:49:17.627Z,6.30
2017-09-30T20:51:46.033Z,5.47
2017-09-30T20:54:15.120Z,5.00
2017-09-30T20:56:43.411Z,4.80
2017-09-30T20:59:12.699Z,5.93
2017-09-30T21:01:41.207Z,6.43
2017-09-30T21:04:10.487Z,7.43
2017-09-30T21:06:39.520Z,4.63
2017-09-30T21:09:08.254Z,4.90
2017-09-30T21:11:36.853Z,6.80
2017-09-30T21:14:06.278Z,5.13
2017-09-30T21:16:34.407Z,3.57
2017-09-30T21:19:02.710Z,2.47
2017-09-30T21:21:31.794Z,3.03
2017-09-30T21:23:59.974Z,2.57
2017-09-30T21:26:29.265Z,2.60
2017-09-30T21:28:57.720Z,2.60
2017-09-30T21:31:26.210Z,3.33
2017-09-30T21:33:54.510Z,3.00
2017-09-30T21:36:23.430Z,3.03
2017-09-30T21:38:51.792Z,4.20
2017-09-30T21:41:20.966Z,2.73
2017-09-30T21:43:49.157Z,4.60
2017-09-30T21:46:18.137Z,3.00
2017-09-30T21:48:47.132Z,2.70
2017-09-30T21:51:16.103Z,2.07
2017-09-30T21:53:44.346Z,1.97
2017-09-30T21:56:12.759Z,2.50
2017-09-30T21:58:41.134Z,4.40
2017-09-30T22:01:10.312Z,1.67
2017-09-30T22:03:38.397Z,1.93
2017-09-30T22:06:06.909Z,2.50
2017-09-30T22:08:36.407Z,1.80
2017-09-30T22:11:05.687Z,3.80
2017-09-30T22:13:34.026Z,2.13
2017-09-30T22:16:02.168Z,1.60
2017-09-30T22:18:31.276Z,1.53
2017-09-30T22:20:59.815Z,2.10
2017-09-30T22:23:28.099Z,1.80
2017-09-30T22:25:57.425Z,2.17
2017-09-30T22:28:26.777Z,2.03
2017-09-30T22:30:55.076Z,2.80
2017-09-30T22:33:23.751Z,2.10
2017-09-30T22:35:52.234Z,1.97
2017-09-30T22:38:20.532Z,1.30
2017-09-30T22:40:48.701Z,1.83
2017-09-30T22:43:17.995Z,1.40
2017-09-30T22:45:46.924Z,2.50
2017-09-30T22:48:15.239Z,1.47
2017-09-30T22:50:43.696Z,2.53
2017-09-30T22:53:12.266Z,1.97
2017-09-30T22:55:40.503Z,1.93
2017-09-30T22:58:09.903Z,2.27
2017-09-30T23:00:38.983Z,1.60
2017-09-30T23:03:07.332Z,1.60
2017-09-30T23:05:35.873Z,2.70
2017-09-30T23:08:05.158Z,2.37
2017-09-30T23:10:34.289Z,1.60
2017-09-30T23:13:02.717Z,1.73
2017-09-30T23:15:31.389Z,2.80
2017-09-30T23:17:59.991Z,1.20
2017-09-30T23:20:28.322Z,1.10
2017-09-30T23:22:56.474Z,2.77
2017-09-30T23:25:24.936Z,4.03
2017-09-30T23:27:53.195Z,1.80
2017-09-30T23:30:22.295Z,1.60
2017-09-30T23:32:50.778Z,1.53
2017-09-30T23:35:19.138Z,1.80
2017-09-30T23:37:47.417Z,1.30
2017-09-30T23:40:15.619Z,1.83
2017-09-30T23:42:44.898Z,1.90
2017-09-30T23:45:13.474Z,1.43
2017-09-30T23:47:41.649Z,1.63
2017-09-30T23:50:10.857Z,1.77
2017-09-30T23:52:39.225Z,1.10
2017-09-30T23:55:07.674Z,2.40
2017-09-30T23:57:36.114Z,2.53
